Time;durP1;ratioP1;P1;durP2;ratioP2;P2;SDS_P1;SDS_P2;PMS_P1;PMS_P2;Temp;Humidity;BMP_temperature;BMP_pressure;BME280_temperature;BME280_humidity;BME280_pressure;Samples;Min_cycle;Max_cycle;Signal;HPM_P1;HPM_P2
2022/10/16 00:00:43;;;;;;;808.53;738.97;;;12.20;99.90;;;;;;5047231;28;20456;-84
2022/10/16 00:03:10;;;;;;;805.10;736.37;;;12.30;99.90;;;;;;5047459;28;20519;-84
2022/10/16 00:05:40;;;;;;;819.03;750.60;;;12.40;99.90;;;;;;5046705;28;20455;-84
2022/10/16 00:08:07;;;;;;;821.57;755.07;;;12.40;99.90;;;;;;5061602;22;20493;-84
2022/10/16 00:10:34;;;;;;;825.07;760.07;;;12.50;99.90;;;;;;5034926;28;20452;-84
2022/10/16 00:13:01;;;;;;;832.10;769.17;;;12.50;99.90;;;;;;5034729;28;20476;-84
2022/10/16 00:15:29;;;;;;;830.33;769.30;;;12.60;99.90;;;;;;5032751;28;20980;-84
2022/10/16 00:17:56;;;;;;;835.57;776.70;;;12.60;99.90;;;;;;5049354;28;20471;-84
2022/10/16 00:20:22;;;;;;;833.97;776.10;;;12.50;99.90;;;;;;5042762;28;20449;-83
2022/10/16 00:22:49;;;;;;;830.80;773.50;;;12.60;99.90;;;;;;5033840;28;20459;-83
2022/10/16 00:25:16;;;;;;;836.87;780.37;;;12.60;99.90;;;;;;5041973;28;20454;-83
2022/10/16 00:27:43;;;;;;;841.17;784.97;;;12.50;99.90;;;;;;5055687;28;20471;-84
2022/10/16 00:30:10;;;;;;;826.57;771.57;;;12.60;99.90;;;;;;5047851;28;20457;-84
2022/10/16 00:32:38;;;;;;;828.70;774.77;;;12.60;99.90;;;;;;5033838;28;21019;-84
2022/10/16 00:35:05;;;;;;;823.50;770.57;;;12.60;99.90;;;;;;5040740;28;20455;-84
2022/10/16 00:37:32;;;;;;;822.37;770.00;;;12.60;99.90;;;;;;5053395;28;20984;-83
2022/10/16 00:39:59;;;;;;;822.83;769.97;;;12.50;99.90;;;;;;5048560;28;20448;-83
2022/10/16 00:42:25;;;;;;;814.67;762.57;;;12.50;99.90;;;;;;5034422;28;20981;-85
2022/10/16 00:44:55;;;;;;;829.17;776.17;;;12.40;99.90;;;;;;5037016;28;20459;-83
2022/10/16 00:47:25;;;;;;;831.53;778.27;;;12.30;99.90;;;;;;5054104;28;20529;-84
2022/10/16 00:49:58;;;;;;;830.43;776.87;;;12.40;99.90;;;;;;5053515;28;20459;-84
2022/10/16 00:52:25;;;;;;;828.30;774.20;;;12.30;99.90;;;;;;5055122;28;20451;-83
2022/10/16 00:54:54;;;;;;;834.93;780.13;;;12.20;99.90;;;;;;5052318;28;20454;-84
2022/10/16 00:57:21;;;;;;;845.70;789.10;;;12.30;99.90;;;;;;5035154;28;20472;-84
2022/10/16 00:59:48;;;;;;;843.50;786.10;;;12.20;99.90;;;;;;5037666;28;20807;-84
2022/10/16 01:02:17;;;;;;;835.97;778.57;;;12.30;99.90;;;;;;5054768;28;20454;-84
2022/10/16 01:04:48;;;;;;;834.30;777.10;;;12.30;99.90;;;;;;5051210;28;20469;-84
2022/10/16 01:07:25;;;;;;;836.53;779.50;;;12.40;99.90;;;;;;5035266;28;20563;-84
2022/10/16 01:10:07;;;;;;;824.17;767.90;;;12.30;99.90;;;;;;5039629;28;20980;-84
2022/10/16 01:12:40;;;;;;;826.67;770.57;;;12.30;99.90;;;;;;5054923;28;20461;-84
2022/10/16 01:15:13;;;;;;;832.20;776.17;;;12.40;99.90;;;;;;5045390;28;21030;-84
2022/10/16 01:17:45;;;;;;;828.50;772.47;;;12.20;99.90;;;;;;5034899;28;20472;-83
2022/10/16 01:20:21;;;;;;;825.63;770.57;;;12.20;99.90;;;;;;5052216;28;20641;-84
2022/10/16 01:23:03;;;;;;;817.17;762.70;;;12.20;99.90;;;;;;5053311;28;20443;-84
2022/10/16 01:25:40;;;;;;;829.73;772.07;;;12.10;99.90;;;;;;5053510;28;20487;-83
2022/10/16 01:28:11;;;;;;;838.30;778.37;;;12.10;99.90;;;;;;5035939;28;20472;-84
2022/10/16 01:30:41;;;;;;;830.03;768.60;;;12.10;99.90;;;;;;5033435;28;20464;-84
2022/10/16 01:33:13;;;;;;;830.70;767.50;;;12.10;99.90;;;;;;5050681;28;20467;-84
2022/10/16 01:35:45;;;;;;;835.30;771.80;;;12.10;99.90;;;;;;5055231;28;20455;-85
2022/10/16 01:38:17;;;;;;;834.83;771.30;;;12.20;99.90;;;;;;5039651;28;20479;-83
2022/10/16 01:40:51;;;;;;;833.83;769.40;;;12.10;99.90;;;;;;5038365;28;20452;-84
2022/10/16 01:43:23;;;;;;;833.57;767.13;;;12.10;99.90;;;;;;5055283;28;20450;-83
2022/10/16 01:45:51;;;;;;;842.47;775.73;;;12.10;99.90;;;;;;5057790;28;20455;-83
2022/10/16 01:48:20;;;;;;;840.40;774.23;;;12.10;99.90;;;;;;5040244;28;21019;-83
2022/10/16 01:50:54;;;;;;;826.87;761.87;;;12.00;99.90;;;;;;5040113;28;20967;-84
2022/10/16 01:53:23;;;;;;;838.07;771.97;;;12.00;99.90;;;;;;5058135;28;20482;-84
2022/10/16 01:55:51;;;;;;;838.87;772.50;;;12.00;99.90;;;;;;5045385;28;20531;-84
2022/10/16 01:58:19;;;;;;;829.43;762.60;;;12.10;99.90;;;;;;5037791;28;20471;-84
2022/10/16 02:00:48;;;;;;;837.47;770.20;;;12.30;99.90;;;;;;5036113;28;20452;-84
2022/10/16 02:03:18;;;;;;;829.83;764.77;;;12.30;99.90;;;;;;5044807;28;20454;-83
2022/10/16 02:05:47;;;;;;;863.13;800.37;;;12.30;99.90;;;;;;5057612;28;20455;-84
2022/10/16 02:08:14;;;;;;;837.13;775.57;;;12.30;99.90;;;;;;5050046;28;20869;-84
2022/10/16 02:10:41;;;;;;;831.20;770.80;;;12.20;99.90;;;;;;5037073;28;20456;-83
2022/10/16 02:13:11;;;;;;;831.00;770.60;;;12.30;99.90;;;;;;5042898;28;20474;-84
2022/10/16 02:15:39;;;;;;;841.80;781.87;;;12.30;99.90;;;;;;5056443;28;20455;-83
2022/10/16 02:18:07;;;;;;;844.70;785.20;;;12.40;99.90;;;;;;5052190;28;20468;-84
2022/10/16 02:20:41;;;;;;;833.50;775.67;;;12.40;99.90;;;;;;5041695;28;20457;-83
2022/10/16 02:23:15;;;;;;;833.73;777.10;;;12.40;99.90;;;;;;5057514;28;20443;-84
2022/10/16 02:25:47;;;;;;;836.77;780.87;;;12.50;99.90;;;;;;5054840;28;20454;-83
2022/10/16 02:28:18;;;;;;;832.77;777.50;;;12.40;99.90;;;;;;5056466;28;20471;-84
2022/10/16 02:30:51;;;;;;;830.50;775.40;;;12.50;99.90;;;;;;5041507;28;20452;-85
2022/10/16 02:33:20;;;;;;;823.40;769.77;;;12.50;99.90;;;;;;5036687;28;20476;-85
2022/10/16 02:35:50;;;;;;;825.37;772.27;;;12.60;99.90;;;;;;5050728;28;20447;-84
2022/10/16 02:38:18;;;;;;;822.50;771.00;;;12.60;99.90;;;;;;5055573;28;20505;-85
2022/10/16 02:40:45;;;;;;;817.80;767.00;;;12.60;99.90;;;;;;5055963;28;20447;-85
2022/10/16 02:43:12;;;;;;;810.93;760.13;;;12.60;99.90;;;;;;5057499;28;20459;-84
2022/10/16 02:45:39;;;;;;;795.60;748.10;;;12.70;99.90;;;;;;5043091;28;20452;-84
2022/10/16 02:48:07;;;;;;;763.57;719.70;;;12.70;99.90;;;;;;5036775;28;20476;-84
2022/10/16 02:50:34;;;;;;;719.47;680.37;;;12.70;99.90;;;;;;5047521;28;20873;-84
2022/10/16 02:53:01;;;;;;;670.17;635.37;;;12.90;99.90;;;;;;5057173;28;20459;-85
2022/10/16 02:55:28;;;;;;;651.07;618.47;;;12.80;99.90;;;;;;5039987;28;20456;-83
2022/10/16 02:57:55;;;;;;;646.60;615.57;;;12.80;99.90;;;;;;5041368;28;20514;-84
2022/10/16 03:00:22;;;;;;;626.83;597.03;;;12.80;99.90;;;;;;5056308;28;20459;-83
2022/10/16 03:02:48;;;;;;;610.97;582.33;;;12.70;99.90;;;;;;5051478;28;20831;-83
2022/10/16 03:05:17;;;;;;;616.60;588.03;;;12.60;99.90;;;;;;5036767;28;20451;-84
2022/10/16 03:07:44;;;;;;;617.20;589.03;;;12.60;99.90;;;;;;5039266;28;20479;-84
2022/10/16 03:10:10;;;;;;;613.53;585.60;;;12.60;99.90;;;;;;5047151;28;20824;-83
2022/10/16 03:12:37;;;;;;;607.17;579.73;;;12.60;99.90;;;;;;5037417;28;20449;-84
2022/10/16 03:15:04;;;;;;;601.83;574.83;;;12.60;99.90;;;;;;5047083;28;20480;-84
2022/10/16 03:17:33;;;;;;;611.73;584.33;;;12.50;99.90;;;;;;5036625;28;20499;-84
2022/10/16 03:20:00;;;;;;;607.77;579.97;;;12.50;99.90;;;;;;5036928;28;20459;-84
2022/10/16 03:22:28;;;;;;;625.40;595.73;;;12.40;99.90;;;;;;5036377;28;20464;-84
2022/10/16 03:24:54;;;;;;;662.13;628.67;;;12.30;99.90;;;;;;5051410;28;20451;-84
2022/10/16 03:27:21;;;;;;;702.57;666.17;;;12.30;99.90;;;;;;5032817;28;20556;-83
2022/10/16 03:29:48;;;;;;;709.03;671.17;;;12.30;99.90;;;;;;5051893;28;20455;-79
2022/10/16 03:32:15;;;;;;;709.30;670.57;;;12.30;99.90;;;;;;5038526;28;20449;-79
2022/10/16 03:34:41;;;;;;;689.80;653.70;;;12.30;99.90;;;;;;5035049;28;20476;-80
2022/10/16 03:37:08;;;;;;;660.20;627.20;;;12.40;99.90;;;;;;5038068;28;20482;-83
2022/10/16 03:39:36;;;;;;;636.83;605.43;;;12.40;99.90;;;;;;5028110;28;20456;-83
2022/10/16 03:42:03;;;;;;;609.47;579.47;;;12.50;99.90;;;;;;5034274;28;20879;-83
2022/10/16 03:44:30;;;;;;;589.87;562.70;;;12.60;99.90;;;;;;5031540;28;20811;-83
2022/10/16 03:46:57;;;;;;;550.93;527.40;;;12.60;99.90;;;;;;5031707;28;20476;-83
2022/10/16 03:49:24;;;;;;;536.03;514.07;;;12.60;99.90;;;;;;5030263;28;20461;-83
2022/10/16 03:51:50;;;;;;;527.17;505.73;;;12.60;99.90;;;;;;5031396;28;20456;-83
2022/10/16 03:54:17;;;;;;;535.50;513.80;;;12.60;99.90;;;;;;5034698;28;20476;-82
2022/10/16 03:56:45;;;;;;;549.10;526.30;;;12.60;99.90;;;;;;5050583;28;20478;-83
2022/10/16 03:59:12;;;;;;;554.67;531.47;;;12.60;99.90;;;;;;5052550;28;20861;-84
2022/10/16 04:01:39;;;;;;;560.03;536.97;;;12.50;99.90;;;;;;5039881;28;20794;-85
2022/10/16 04:04:05;;;;;;;571.77;547.47;;;12.40;99.90;;;;;;5031061;28;20448;-84
2022/10/16 04:06:32;;;;;;;580.70;555.80;;;12.40;99.90;;;;;;5029314;28;20483;-84
2022/10/16 04:08:59;;;;;;;582.90;557.70;;;12.40;99.90;;;;;;5032202;28;20452;-84
2022/10/16 04:11:25;;;;;;;590.17;562.50;;;12.40;99.90;;;;;;5031761;28;20460;-84
2022/10/16 04:13:53;;;;;;;604.67;576.97;;;12.40;99.90;;;;;;5028771;28;21000;-84
2022/10/16 04:16:20;;;;;;;622.83;593.47;;;12.30;99.90;;;;;;5031354;28;20456;-83
2022/10/16 04:18:47;;;;;;;632.77;603.67;;;12.30;99.90;;;;;;5031889;28;20452;-85
2022/10/16 04:21:14;;;;;;;627.63;598.07;;;12.30;99.90;;;;;;5029597;28;20984;-83
2022/10/16 04:23:40;;;;;;;631.80;601.77;;;12.30;99.90;;;;;;5031734;28;20459;-82
2022/10/16 04:26:07;;;;;;;662.50;630.83;;;12.20;99.90;;;;;;5031953;28;20463;-84
2022/10/16 04:28:34;;;;;;;674.03;641.23;;;12.30;99.90;;;;;;5029440;28;20531;-83
2022/10/16 04:31:04;;;;;;;663.00;631.60;;;12.30;99.90;;;;;;5040793;28;20455;-84
2022/10/16 04:33:31;;;;;;;659.43;627.60;;;12.30;99.90;;;;;;5050134;28;20458;-81
2022/10/16 04:35:59;;;;;;;661.50;629.07;;;12.30;99.90;;;;;;5046110;28;20447;-83
2022/10/16 04:38:26;;;;;;;689.03;655.43;;;12.20;99.90;;;;;;5044264;28;20992;-84
2022/10/16 04:40:53;;;;;;;693.93;659.33;;;12.20;99.90;;;;;;5045140;28;20447;-84
2022/10/16 04:43:20;;;;;;;704.37;668.27;;;12.30;99.90;;;;;;5049402;28;20486;-83
2022/10/16 04:45:47;;;;;;;682.67;648.40;;;12.30;99.90;;;;;;5035821;28;20448;-84
2022/10/16 04:48:15;;;;;;;685.10;650.80;;;12.30;99.90;;;;;;5049877;28;20474;-84
2022/10/16 04:50:42;;;;;;;673.90;640.00;;;12.30;99.90;;;;;;5045705;28;20448;-84
2022/10/16 04:53:09;;;;;;;681.90;647.23;;;12.10;99.90;;;;;;5045031;28;20939;-84
2022/10/16 04:55:36;;;;;;;715.17;677.67;;;11.90;99.90;;;;;;5051433;28;20486;-84
2022/10/16 04:58:02;;;;;;;774.53;730.37;;;11.80;99.90;;;;;;5040316;28;20546;-84
2022/10/16 05:00:38;;;;;;;796.23;747.43;;;11.80;99.90;;;;;;5040737;28;20455;-85
2022/10/16 05:03:38;;;;;;;;;;;;;;;;;;;;;
2022/10/16 05:06:33;;;;;;;814.53;764.23;;;11.60;99.90;;;;;;5047046;28;20601;-84
2022/10/16 05:09:03;;;;;;;835.80;781.17;;;11.50;99.90;;;;;;5032267;28;20456;-85
2022/10/16 05:15:39;;;;;;;840.80;780.97;;;11.50;99.90;;;;;;5009923;28;20472;-85
2022/10/16 05:22:01;;;;;;;839.13;777.67;;;11.30;99.90;;;;;;4950139;28;20457;-85
2022/10/16 05:24:58;;;;;;;843.47;778.37;;;11.20;99.90;;;;;;5052884;28;20436;-85
2022/10/16 05:28:04;;;;;;;843.53;775.93;;;11.00;99.90;;;;;;5040991;28;20498;-85
2022/10/16 05:31:06;;;;;;;829.43;757.57;;;10.90;99.90;;;;;;5055268;28;20451;-85
2022/10/16 05:34:11;;;;;;;;;;;;;;;;;;;;;
2022/10/16 05:36:40;;;;;;;803.50;729.77;;;11.10;99.90;;;;;;5053376;28;20858;-85
2022/10/16 05:39:08;;;;;;;797.90;722.80;;;11.00;99.90;;;;;;5044307;28;20812;-84
2022/10/16 05:41:35;;;;;;;791.77;717.00;;;10.90;99.90;;;;;;5050496;28;20451;-83
2022/10/16 05:44:05;;;;;;;791.93;715.00;;;11.00;99.90;;;;;;5036164;28;20452;-83
2022/10/16 05:46:31;;;;;;;797.67;721.70;;;11.00;99.90;;;;;;5049140;28;20474;-83
2022/10/16 05:48:58;;;;;;;782.07;705.23;;;11.00;99.90;;;;;;5047738;28;20474;-84
2022/10/16 05:51:25;;;;;;;777.43;700.33;;;10.90;99.90;;;;;;5046707;28;20458;-84
2022/10/16 05:53:53;;;;;;;785.03;707.50;;;11.00;99.90;;;;;;5047896;28;20468;-83
2022/10/16 05:56:21;;;;;;;781.40;702.90;;;11.00;99.90;;;;;;5039515;28;20452;-84
2022/10/16 05:59:15;;;;;;;752.87;675.10;;;11.10;99.90;;;;;;5034091;28;20455;-85
2022/10/16 06:01:42;;;;;;;753.60;674.43;;;11.10;99.90;;;;;;5045985;28;20827;-84
2022/10/16 06:04:09;;;;;;;749.90;671.13;;;11.30;99.90;;;;;;5034222;28;20463;-83
2022/10/16 06:09:05;;;;;;;779.47;703.30;;;11.20;99.90;;;;;;5038488;28;20465;-82
2022/10/16 06:11:34;;;;;;;788.57;713.80;;;11.40;99.90;;;;;;5045134;28;20459;-81
2022/10/16 06:14:06;;;;;;;795.00;721.37;;;11.40;99.90;;;;;;5046409;28;20452;-82
2022/10/16 06:16:33;;;;;;;803.90;731.77;;;11.40;99.90;;;;;;5037216;28;20449;-81
2022/10/16 06:19:05;;;;;;;817.37;745.27;;;11.30;99.90;;;;;;5026834;28;20445;-81
2022/10/16 06:21:33;;;;;;;814.53;742.43;;;11.40;99.90;;;;;;5018068;28;20455;-82
2022/10/16 06:24:00;;;;;;;810.03;738.63;;;11.50;99.90;;;;;;5005983;28;20457;-81
2022/10/16 06:26:28;;;;;;;817.67;747.10;;;11.50;99.90;;;;;;5012310;28;20452;-81
2022/10/16 06:28:57;;;;;;;812.83;742.17;;;11.50;99.90;;;;;;5025500;28;20456;-81
2022/10/16 06:31:27;;;;;;;814.33;743.77;;;11.50;99.90;;;;;;5022564;28;20446;-82
2022/10/16 06:33:55;;;;;;;813.97;743.80;;;11.50;99.90;;;;;;5009976;28;20441;-82
2022/10/16 06:36:23;;;;;;;816.07;744.83;;;11.60;99.90;;;;;;5024957;28;20481;-82
2022/10/16 06:38:50;;;;;;;809.43;738.93;;;11.70;99.90;;;;;;5019895;28;20492;-82
2022/10/16 06:41:19;;;;;;;807.63;737.80;;;11.80;99.90;;;;;;5007916;28;20458;-83
2022/10/16 06:43:46;;;;;;;812.60;743.63;;;11.80;99.90;;;;;;5009211;28;20448;-82
2022/10/16 06:46:16;;;;;;;821.30;751.50;;;11.90;99.90;;;;;;5024945;28;20537;-82
2022/10/16 06:48:43;;;;;;;811.47;742.70;;;12.00;99.90;;;;;;5024908;28;20478;-83
2022/10/16 06:51:11;;;;;;;817.60;751.20;;;12.20;99.90;;;;;;5000305;28;20455;-81
2022/10/16 06:53:40;;;;;;;837.13;771.53;;;12.30;99.90;;;;;;5002890;28;20780;-83
2022/10/16 06:56:08;;;;;;;833.13;770.00;;;12.40;99.90;;;;;;5024790;28;20489;-82
2022/10/16 06:58:35;;;;;;;830.73;770.30;;;12.60;99.90;;;;;;5027135;28;20841;-84
2022/10/16 07:01:02;;;;;;;818.47;760.40;;;12.80;99.90;;;;;;5006218;28;20706;-84
2022/10/16 07:03:30;;;;;;;803.10;750.10;;;12.70;99.90;;;;;;5020171;28;20471;-82
2022/10/16 07:05:57;;;;;;;796.97;745.67;;;12.80;99.90;;;;;;5027694;28;20453;-83
2022/10/16 07:08:23;;;;;;;787.43;739.43;;;12.80;99.90;;;;;;5013423;28;20482;-83
2022/10/16 07:10:59;;;;;;;760.60;715.53;;;12.80;99.90;;;;;;5009950;28;20453;-83
2022/10/16 07:13:26;;;;;;;739.10;697.07;;;12.90;99.90;;;;;;5025613;28;20507;-82
2022/10/16 07:15:53;;;;;;;716.40;677.43;;;12.90;99.90;;;;;;5022190;28;20477;-82
2022/10/16 07:18:20;;;;;;;700.63;663.40;;;12.80;99.90;;;;;;5018448;28;20464;-82
2022/10/16 07:20:48;;;;;;;704.60;667.20;;;12.80;99.90;;;;;;5023720;28;20449;-82
2022/10/16 07:23:15;;;;;;;698.77;661.17;;;12.80;99.90;;;;;;5015936;28;20446;-83
2022/10/16 07:25:41;;;;;;;682.00;645.73;;;13.00;99.90;;;;;;5006708;28;20947;-82
2022/10/16 07:28:08;;;;;;;697.20;659.37;;;13.00;99.90;;;;;;5024781;28;20473;-83
2022/10/16 07:30:37;;;;;;;686.63;649.93;;;13.10;99.90;;;;;;5024346;28;20485;-85
2022/10/16 07:33:04;;;;;;;676.83;641.03;;;13.10;99.90;;;;;;5019078;28;20477;-84
2022/10/16 07:35:31;;;;;;;667.37;632.40;;;13.10;99.90;;;;;;5026021;28;20468;-85
2022/10/16 07:37:59;;;;;;;636.33;604.07;;;13.20;99.90;;;;;;5029378;28;20482;-85
2022/10/16 07:40:26;;;;;;;600.63;571.13;;;13.20;99.90;;;;;;5002316;28;20967;-85
2022/10/16 07:42:53;;;;;;;559.80;533.90;;;13.20;99.90;;;;;;5008209;28;20458;-85
2022/10/16 07:45:20;;;;;;;560.57;534.77;;;13.30;99.90;;;;;;5026360;28;20443;-83
2022/10/16 07:47:47;;;;;;;545.07;520.17;;;13.40;99.90;;;;;;5021706;28;20481;-83
2022/10/16 07:50:14;;;;;;;563.50;536.50;;;13.60;99.90;;;;;;5036269;28;20531;-85
2022/10/16 07:52:40;;;;;;;574.30;547.13;;;13.60;99.90;;;;;;5012821;28;20460;-85
2022/10/16 07:55:09;;;;;;;592.47;563.80;;;13.70;99.90;;;;;;5023390;28;20484;-84
2022/10/16 07:57:36;;;;;;;604.97;575.43;;;13.80;99.90;;;;;;5013003;28;20783;-83
2022/10/16 08:00:03;;;;;;;559.13;533.07;;;14.00;99.90;;;;;;5013044;28;20454;-85
2022/10/16 08:02:29;;;;;;;548.70;522.53;;;14.20;99.90;;;;;;5004322;28;20455;-85
2022/10/16 08:04:56;;;;;;;443.80;425.57;;;14.20;99.90;;;;;;5011693;28;20488;-84
2022/10/16 08:07:23;;;;;;;359.63;346.03;;;14.40;99.90;;;;;;5021721;28;20488;-84
2022/10/16 08:09:51;;;;;;;346.33;333.57;;;14.50;99.90;;;;;;5020268;28;20456;-83
2022/10/16 08:12:19;;;;;;;345.00;332.47;;;14.60;99.90;;;;;;5005309;28;20458;-84
2022/10/16 08:14:46;;;;;;;292.13;281.80;;;14.60;99.90;;;;;;5006195;28;20453;-84
2022/10/16 08:17:14;;;;;;;230.20;222.40;;;14.70;99.90;;;;;;5020196;28;20485;-84
2022/10/16 08:19:45;;;;;;;225.37;218.07;;;14.80;99.90;;;;;;5014416;28;20454;-83
2022/10/16 08:22:12;;;;;;;219.30;212.20;;;14.90;99.90;;;;;;5000706;28;20482;-83
2022/10/16 08:24:39;;;;;;;174.43;168.43;;;14.90;99.90;;;;;;5017109;28;20460;-82
2022/10/16 08:27:06;;;;;;;134.87;130.13;;;15.00;99.90;;;;;;5022619;28;20473;-84
2022/10/16 08:29:34;;;;;;;131.10;126.77;;;15.10;99.90;;;;;;5009618;28;20549;-83
2022/10/16 08:32:01;;;;;;;104.23;100.53;;;15.20;99.90;;;;;;5005711;28;20457;-83
2022/10/16 08:34:28;;;;;;;118.87;114.77;;;15.20;99.90;;;;;;5017701;28;20485;-83
2022/10/16 08:36:55;;;;;;;79.90;77.00;;;15.30;99.90;;;;;;5019673;28;20482;-84
2022/10/16 08:39:22;;;;;;;45.93;44.23;;;15.40;99.90;;;;;;5006921;28;20461;-83
2022/10/16 08:42:18;;;;;;;39.40;37.53;;;15.50;99.90;;;;;;5014444;28;20454;-83
2022/10/16 08:45:20;;;;;;;13.43;12.07;;;15.60;99.90;;;;;;5021646;28;20460;-83
2022/10/16 08:47:54;;;;;;;7.70;7.10;;;15.80;99.90;;;;;;5030121;28;20535;-84
2022/10/16 08:50:26;;;;;;;6.30;4.20;;;15.90;99.90;;;;;;5029661;28;20449;-82
2022/10/16 08:52:53;;;;;;;4.73;3.47;;;16.00;99.90;;;;;;5029750;28;20489;-84
2022/10/16 08:55:33;;;;;;;5.13;3.70;;;16.10;99.90;;;;;;5029335;28;20474;-83
2022/10/16 08:58:00;;;;;;;5.60;2.37;;;16.30;99.90;;;;;;5029293;28;21008;-84
2022/10/16 09:00:29;;;;;;;5.80;2.60;;;16.30;99.90;;;;;;5029436;28;20450;-84
2022/10/16 09:03:05;;;;;;;4.37;1.70;;;16.70;99.90;;;;;;5029453;28;20454;-84
2022/10/16 09:06:01;;;;;;;6.13;1.50;;;17.00;99.90;;;;;;5029093;28;20450;-85
2022/10/16 09:08:38;;;;;;;6.40;1.97;;;17.40;99.90;;;;;;5028821;28;20488;-84
2022/10/16 09:11:12;;;;;;;10.40;2.83;;;17.90;99.90;;;;;;5029239;28;20463;-83
2022/10/16 09:13:49;;;;;;;4.33;1.70;;;18.30;99.90;;;;;;5029728;28;20461;-84
2022/10/16 09:16:24;;;;;;;6.33;1.60;;;18.60;98.70;;;;;;5029285;28;20530;-84
2022/10/16 09:19:00;;;;;;;5.67;1.97;;;18.90;97.50;;;;;;5029623;28;20548;-84
2022/10/16 09:21:30;;;;;;;8.10;3.60;;;19.50;97.00;;;;;;5029569;28;20462;-84
2022/10/16 09:24:00;;;;;;;10.37;1.80;;;19.80;95.90;;;;;;5029458;28;20972;-84
2022/10/16 09:26:27;;;;;;;4.43;1.17;;;19.90;93.20;;;;;;5029828;28;20462;-85
2022/10/16 09:28:54;;;;;;;4.40;1.13;;;20.30;92.50;;;;;;5030115;28;20477;-84
2022/10/16 09:31:23;;;;;;;9.10;1.50;;;20.20;90.90;;;;;;5030179;28;20450;-84
2022/10/16 09:33:54;;;;;;;4.93;1.47;;;20.40;87.70;;;;;;5029258;28;20454;-85
2022/10/16 09:36:21;;;;;;;4.37;1.10;;;20.50;87.40;;;;;;5029832;28;20509;-84
2022/10/16 09:38:49;;;;;;;6.43;1.43;;;20.40;86.20;;;;;;5029954;28;20485;-84
2022/10/16 09:41:19;;;;;;;6.03;2.00;;;20.60;85.70;;;;;;5029847;28;20546;-84
2022/10/16 09:43:54;;;;;;;7.07;4.13;;;20.60;84.90;;;;;;5030008;28;20459;-84
2022/10/16 09:46:29;;;;;;;4.77;1.73;;;21.10;85.30;;;;;;5029476;28;20458;-84
2022/10/16 09:48:58;;;;;;;5.80;1.10;;;21.10;82.90;;;;;;5029852;28;20455;-84
2022/10/16 09:51:27;;;;;;;4.17;1.37;;;21.70;80.70;;;;;;5028972;28;20468;-84
2022/10/16 09:54:00;;;;;;;6.23;1.33;;;21.60;77.50;;;;;;5028801;28;20445;-85
2022/10/16 09:56:29;;;;;;;5.37;1.10;;;21.60;77.80;;;;;;5028215;28;20477;-85
2022/10/16 09:58:57;;;;;;;3.70;0.80;;;21.40;76.30;;;;;;5028971;28;20471;-84
2022/10/16 10:01:30;;;;;;;7.37;1.30;;;21.60;78.10;;;;;;5028388;28;20470;-84
2022/10/16 10:04:00;;;;;;;5.90;1.10;;;22.10;77.80;;;;;;5028923;28;20452;-85
2022/10/16 10:06:30;;;;;;;4.23;0.97;;;22.40;73.90;;;;;;5029023;28;20483;-84
2022/10/16 10:09:06;;;;;;;8.40;1.00;;;21.70;71.60;;;;;;5029384;28;20489;-85
2022/10/16 10:11:41;;;;;;;4.40;0.80;;;21.80;72.50;;;;;;5029071;28;20491;-85
2022/10/16 10:14:19;;;;;;;5.43;0.93;;;21.60;73.70;;;;;;5029225;28;20459;-84
2022/10/16 10:16:48;;;;;;;5.77;1.70;;;22.20;72.10;;;;;;5029296;28;20484;-85
2022/10/16 10:19:16;;;;;;;7.90;1.07;;;22.90;71.20;;;;;;5029360;28;20453;-85
2022/10/16 10:21:43;;;;;;;3.77;1.00;;;23.10;65.60;;;;;;5027915;28;20445;-85
2022/10/16 10:24:15;;;;;;;7.10;0.93;;;23.10;64.70;;;;;;5027567;28;20457;-84
2022/10/16 10:26:50;;;;;;;6.23;1.00;;;22.60;64.20;;;;;;5028566;28;20819;-85
2022/10/16 10:29:29;;;;;;;4.60;1.20;;;21.70;66.30;;;;;;5029941;28;20455;-84
2022/10/16 10:32:07;;;;;;;4.93;1.03;;;21.40;67.70;;;;;;5028409;28;20452;-84
2022/10/16 10:34:44;;;;;;;5.33;1.20;;;21.30;70.10;;;;;;5028111;28;20460;-84
2022/10/16 10:37:21;;;;;;;4.30;0.90;;;21.50;71.50;;;;;;5028721;28;20499;-84
2022/10/16 10:39:56;;;;;;;3.60;0.77;;;21.80;68.70;;;;;;5028632;28;20456;-85
2022/10/16 10:42:29;;;;;;;4.20;0.93;;;21.70;69.00;;;;;;5028431;28;20453;-85
2022/10/16 10:45:17;;;;;;;4.60;1.00;;;21.60;67.60;;;;;;5028273;28;20452;-84
2022/10/16 10:47:53;;;;;;;4.70;0.90;;;21.70;65.90;;;;;;5028857;28;20469;-85
2022/10/16 10:50:26;;;;;;;6.73;1.10;;;22.30;65.30;;;;;;5027659;28;20463;-85
2022/10/16 10:53:00;;;;;;;4.50;1.20;;;22.50;64.10;;;;;;5027565;28;20453;-85
2022/10/16 10:55:36;;;;;;;4.00;0.90;;;22.40;62.90;;;;;;5027559;28;20505;-85
2022/10/16 10:58:43;;;;;;;4.13;1.10;;;22.50;62.20;;;;;;5028222;28;20484;-84
2022/10/16 11:01:11;;;;;;;4.77;1.00;;;22.20;60.80;;;;;;5027865;28;20453;-84
2022/10/16 11:04:03;;;;;;;3.80;0.90;;;22.20;63.80;;;;;;5027467;28;20889;-84
2022/10/16 11:06:33;;;;;;;10.13;0.90;;;22.20;62.00;;;;;;5028205;28;20511;-85
2022/10/16 11:09:07;;;;;;;5.27;2.00;;;22.80;60.50;;;;;;5027091;28;20461;-84
2022/10/16 11:11:38;;;;;;;3.93;0.87;;;22.70;59.30;;;;;;5028864;28;20456;-84
2022/10/16 11:14:15;;;;;;;4.17;1.03;;;22.90;58.00;;;;;;5027903;28;20457;-84
2022/10/16 11:16:46;;;;;;;5.60;1.00;;;23.10;56.10;;;;;;5026117;28;20483;-85
2022/10/16 11:19:27;;;;;;;4.10;1.20;;;23.20;53.50;;;;;;5026794;28;20449;-84
2022/10/16 11:22:04;;;;;;;3.80;0.77;;;23.40;54.90;;;;;;5026896;28;20455;-85
2022/10/16 11:24:42;;;;;;;6.60;0.80;;;23.40;54.10;;;;;;5026989;28;20452;-85
2022/10/16 11:27:15;;;;;;;5.77;1.00;;;23.40;52.40;;;;;;5027300;28;20469;-84
2022/10/16 11:29:49;;;;;;;4.60;0.80;;;23.60;50.40;;;;;;5026727;28;20460;-85
2022/10/16 11:32:24;;;;;;;7.33;1.03;;;24.10;48.20;;;;;;5025999;28;20457;-84
2022/10/16 11:34:58;;;;;;;4.17;0.83;;;23.80;47.70;;;;;;5023081;28;20460;-84
2022/10/16 11:37:31;;;;;;;6.87;0.90;;;24.10;49.50;;;;;;5024928;28;20489;-84
2022/10/16 11:40:04;;;;;;;4.23;0.80;;;23.70;46.80;;;;;;5025000;28;20946;-84
2022/10/16 11:42:39;;;;;;;4.90;1.17;;;23.40;47.50;;;;;;5025026;28;20453;-84
2022/10/16 11:45:24;;;;;;;10.33;1.30;;;23.30;47.40;;;;;;5024974;28;20460;-84
2022/10/16 11:47:57;;;;;;;4.27;1.07;;;23.10;48.90;;;;;;5025141;28;20496;-84
2022/10/16 11:50:30;;;;;;;7.00;1.20;;;23.20;47.40;;;;;;5023660;28;20452;-83
2022/10/16 11:53:04;;;;;;;4.00;1.07;;;23.70;48.40;;;;;;5025127;28;20457;-84
2022/10/16 11:55:35;;;;;;;4.37;0.80;;;22.90;44.60;;;;;;5022495;28;20453;-84
2022/10/16 11:58:08;;;;;;;7.20;1.10;;;22.70;48.10;;;;;;5025934;28;20490;-84
2022/10/16 12:00:40;;;;;;;5.97;1.00;;;22.50;52.30;;;;;;5025597;28;20462;-84
2022/10/16 12:03:20;;;;;;;3.70;0.73;;;22.30;52.90;;;;;;5025240;28;20457;-84
2022/10/16 12:06:14;;;;;;;4.30;1.10;;;22.00;52.60;;;;;;5024483;28;20464;-84
2022/10/16 12:08:41;;;;;;;3.70;0.70;;;22.20;52.80;;;;;;5027538;28;20488;-84
2022/10/16 12:11:10;;;;;;;5.57;1.17;;;21.80;54.90;;;;;;5027678;28;20451;-84
2022/10/16 12:13:39;;;;;;;5.37;1.13;;;21.60;58.20;;;;;;5027667;28;20444;-84
2022/10/16 12:16:23;;;;;;;4.83;1.00;;;21.30;57.70;;;;;;5027552;28;20450;-84
2022/10/16 12:18:50;;;;;;;5.90;0.90;;;21.20;58.80;;;;;;5027992;28;20483;-84
2022/10/16 12:21:19;;;;;;;6.33;0.93;;;21.50;58.60;;;;;;5027764;28;20448;-84
2022/10/16 12:23:51;;;;;;;6.90;1.03;;;21.40;59.00;;;;;;5028019;28;20466;-84
2022/10/16 12:26:26;;;;;;;13.60;2.80;;;21.30;60.50;;;;;;5027361;28;20461;-84
2022/10/16 12:28:53;;;;;;;5.27;1.20;;;21.60;59.10;;;;;;5028411;28;20506;-85
2022/10/16 12:31:20;;;;;;;4.17;1.10;;;23.10;58.60;;;;;;5030021;28;20456;-85
2022/10/16 12:33:58;;;;;;;5.60;1.10;;;24.00;51.80;;;;;;5034741;28;20456;-85
2022/10/16 12:36:32;;;;;;;4.00;0.90;;;24.70;48.80;;;;;;5033261;28;20484;-85
2022/10/16 12:38:59;;;;;;;6.17;1.37;;;25.20;43.70;;;;;;5033287;28;20437;-84
2022/10/16 12:41:28;;;;;;;4.27;1.00;;;25.40;40.20;;;;;;5034192;28;20481;-85
2022/10/16 12:43:56;;;;;;;4.67;1.10;;;25.40;40.20;;;;;;5025355;28;20459;-85
2022/10/16 12:46:35;;;;;;;5.07;0.90;;;25.00;42.10;;;;;;5025938;28;20461;-84
2022/10/16 12:49:30;;;;;;;5.00;1.00;;;24.80;43.40;;;;;;5026750;28;20468;-85
2022/10/16 12:51:59;;;;;;;4.20;0.93;;;24.50;39.50;;;;;;5025254;28;20452;-85